sensor_id;sensor_type;location;lat;lon;timestamp;P1;durP1;ratioP1;P2;durP2;ratioP2
3407;SDS011;1717;50.240;8.406;2024-01-30T00:01:23;6.40;;;5.80;;
3407;SDS011;1717;50.240;8.406;2024-01-30T00:03:49;6.97;;;5.60;;
3407;SDS011;1717;50.240;8.406;2024-01-30T00:06:18;7.40;;;5.43;;
3407;SDS011;1717;50.240;8.406;2024-01-30T00:08:46;7.93;;;5.47;;
3407;SDS011;1717;50.240;8.406;2024-01-30T00:11:15;6.27;;;5.30;;
3407;SDS011;1717;50.240;8.406;2024-01-30T00:13:42;7.90;;;5.60;;
3407;SDS011;1717;50.240;8.406;2024-01-30T00:16:19;6.67;;;5.60;;
3407;SDS011;1717;50.240;8.406;2024-01-30T00:18:46;6.87;;;6.03;;
3407;SDS011;1717;50.240;8.406;2024-01-30T00:21:13;8.03;;;5.23;;
3407;SDS011;1717;50.240;8.406;2024-01-30T00:23:40;6.10;;;5.30;;
3407;SDS011;1717;50.240;8.406;2024-01-30T00:26:07;9.27;;;5.87;;
3407;SDS011;1717;50.240;8.406;2024-01-30T00:28:35;10.23;;;6.43;;
3407;SDS011;1717;50.240;8.406;2024-01-30T00:31:02;10.37;;;5.33;;
3407;SDS011;1717;50.240;8.406;2024-01-30T00:33:29;7.57;;;5.57;;
3407;SDS011;1717;50.240;8.406;2024-01-30T00:35:56;5.93;;;5.30;;
3407;SDS011;1717;50.240;8.406;2024-01-30T00:38:23;7.83;;;5.43;;
3407;SDS011;1717;50.240;8.406;2024-01-30T00:40:50;7.10;;;5.50;;
3407;SDS011;1717;50.240;8.406;2024-01-30T00:43:17;7.93;;;5.83;;
3407;SDS011;1717;50.240;8.406;2024-01-30T00:45:47;7.17;;;5.03;;
3407;SDS011;1717;50.240;8.406;2024-01-30T00:48:15;5.80;;;4.93;;
3407;SDS011;1717;50.240;8.406;2024-01-30T00:50:42;6.90;;;5.80;;
3407;SDS011;1717;50.240;8.406;2024-01-30T00:53:09;5.93;;;5.07;;
3407;SDS011;1717;50.240;8.406;2024-01-30T00:55:36;6.93;;;4.87;;
3407;SDS011;1717;50.240;8.406;2024-01-30T00:58:03;5.87;;;5.27;;
3407;SDS011;1717;50.240;8.406;2024-01-30T01:00:30;6.30;;;5.53;;
3407;SDS011;1717;50.240;8.406;2024-01-30T01:02:58;6.77;;;5.33;;
3407;SDS011;1717;50.240;8.406;2024-01-30T01:05:25;6.70;;;5.77;;
3407;SDS011;1717;50.240;8.406;2024-01-30T01:07:52;8.97;;;6.03;;
3407;SDS011;1717;50.240;8.406;2024-01-30T01:10:19;8.67;;;6.17;;
3407;SDS011;1717;50.240;8.406;2024-01-30T01:12:48;9.00;;;5.57;;
3407;SDS011;1717;50.240;8.406;2024-01-30T01:15:15;7.70;;;5.63;;
3407;SDS011;1717;50.240;8.406;2024-01-30T01:17:41;6.83;;;5.53;;
3407;SDS011;1717;50.240;8.406;2024-01-30T01:20:10;8.80;;;5.60;;
3407;SDS011;1717;50.240;8.406;2024-01-30T01:22:37;7.97;;;5.97;;
3407;SDS011;1717;50.240;8.406;2024-01-30T01:25:05;7.83;;;6.33;;
3407;SDS011;1717;50.240;8.406;2024-01-30T01:27:33;10.43;;;6.60;;
3407;SDS011;1717;50.240;8.406;2024-01-30T01:30:05;8.83;;;6.50;;
3407;SDS011;1717;50.240;8.406;2024-01-30T01:32:34;6.80;;;6.10;;
3407;SDS011;1717;50.240;8.406;2024-01-30T01:35:01;8.17;;;6.60;;
3407;SDS011;1717;50.240;8.406;2024-01-30T01:37:31;7.93;;;6.20;;
3407;SDS011;1717;50.240;8.406;2024-01-30T01:39:58;10.80;;;6.37;;
3407;SDS011;1717;50.240;8.406;2024-01-30T01:42:25;6.27;;;5.70;;
3407;SDS011;1717;50.240;8.406;2024-01-30T01:44:52;8.33;;;5.90;;
3407;SDS011;1717;50.240;8.406;2024-01-30T01:47:19;7.77;;;5.80;;
3407;SDS011;1717;50.240;8.406;2024-01-30T01:49:46;12.43;;;6.37;;
3407;SDS011;1717;50.240;8.406;2024-01-30T01:52:13;8.40;;;5.93;;
3407;SDS011;1717;50.240;8.406;2024-01-30T01:54:42;10.57;;;6.20;;
3407;SDS011;1717;50.240;8.406;2024-01-30T01:57:09;7.20;;;6.50;;
3407;SDS011;1717;50.240;8.406;2024-01-30T01:59:36;7.73;;;5.87;;
3407;SDS011;1717;50.240;8.406;2024-01-30T02:02:03;7.23;;;6.13;;
3407;SDS011;1717;50.240;8.406;2024-01-30T02:04:33;8.47;;;6.30;;
3407;SDS011;1717;50.240;8.406;2024-01-30T02:07:00;7.73;;;6.70;;
3407;SDS011;1717;50.240;8.406;2024-01-30T02:09:27;8.70;;;5.87;;
3407;SDS011;1717;50.240;8.406;2024-01-30T02:11:55;7.20;;;6.50;;
3407;SDS011;1717;50.240;8.406;2024-01-30T02:14:22;5.97;;;5.17;;
3407;SDS011;1717;50.240;8.406;2024-01-30T02:16:49;10.83;;;5.33;;
3407;SDS011;1717;50.240;8.406;2024-01-30T02:19:16;7.47;;;5.50;;
3407;SDS011;1717;50.240;8.406;2024-01-30T02:21:44;6.13;;;5.50;;
3407;SDS011;1717;50.240;8.406;2024-01-30T02:24:12;6.33;;;5.70;;
3407;SDS011;1717;50.240;8.406;2024-01-30T02:26:39;9.37;;;5.70;;
3407;SDS011;1717;50.240;8.406;2024-01-30T02:29:05;5.87;;;5.37;;
3407;SDS011;1717;50.240;8.406;2024-01-30T02:31:32;7.80;;;5.20;;
3407;SDS011;1717;50.240;8.406;2024-01-30T02:33:59;12.17;;;6.30;;
3407;SDS011;1717;50.240;8.406;2024-01-30T02:36:26;6.47;;;5.30;;
3407;SDS011;1717;50.240;8.406;2024-01-30T02:38:54;8.60;;;6.10;;
3407;SDS011;1717;50.240;8.406;2024-01-30T02:41:21;7.57;;;5.63;;
3407;SDS011;1717;50.240;8.406;2024-01-30T02:43:47;7.13;;;5.50;;
3407;SDS011;1717;50.240;8.406;2024-01-30T02:46:14;7.27;;;5.97;;
3407;SDS011;1717;50.240;8.406;2024-01-30T02:48:41;7.60;;;5.90;;
3407;SDS011;1717;50.240;8.406;2024-01-30T02:51:08;7.73;;;6.33;;
3407;SDS011;1717;50.240;8.406;2024-01-30T02:53:35;9.07;;;7.03;;
3407;SDS011;1717;50.240;8.406;2024-01-30T02:56:03;8.80;;;5.50;;
3407;SDS011;1717;50.240;8.406;2024-01-30T02:58:30;7.00;;;5.23;;
3407;SDS011;1717;50.240;8.406;2024-01-30T03:00:57;5.53;;;5.00;;
3407;SDS011;1717;50.240;8.406;2024-01-30T03:03:24;6.23;;;5.23;;
3407;SDS011;1717;50.240;8.406;2024-01-30T03:05:51;7.00;;;5.87;;
3407;SDS011;1717;50.240;8.406;2024-01-30T03:08:18;5.97;;;5.33;;
3407;SDS011;1717;50.240;8.406;2024-01-30T03:10:45;6.97;;;6.00;;
3407;SDS011;1717;50.240;8.406;2024-01-30T03:13:13;9.30;;;5.70;;
3407;SDS011;1717;50.240;8.406;2024-01-30T03:15:40;8.27;;;5.70;;
3407;SDS011;1717;50.240;8.406;2024-01-30T03:18:06;6.40;;;5.47;;
3407;SDS011;1717;50.240;8.406;2024-01-30T03:20:33;7.80;;;5.27;;
3407;SDS011;1717;50.240;8.406;2024-01-30T03:23:00;8.40;;;5.67;;
3407;SDS011;1717;50.240;8.406;2024-01-30T03:25:27;7.77;;;5.37;;
3407;SDS011;1717;50.240;8.406;2024-01-30T03:27:54;19.83;;;7.40;;
3407;SDS011;1717;50.240;8.406;2024-01-30T03:30:22;6.30;;;5.73;;
3407;SDS011;1717;50.240;8.406;2024-01-30T03:32:49;7.83;;;5.90;;
3407;SDS011;1717;50.240;8.406;2024-01-30T03:35:16;7.20;;;6.03;;
3407;SDS011;1717;50.240;8.406;2024-01-30T03:37:44;6.77;;;5.10;;
3407;SDS011;1717;50.240;8.406;2024-01-30T03:40:11;8.90;;;5.70;;
3407;SDS011;1717;50.240;8.406;2024-01-30T03:42:38;7.33;;;5.30;;
3407;SDS011;1717;50.240;8.406;2024-01-30T03:45:06;8.13;;;6.10;;
3407;SDS011;1717;50.240;8.406;2024-01-30T03:47:34;6.60;;;5.60;;
3407;SDS011;1717;50.240;8.406;2024-01-30T03:50:01;7.60;;;6.37;;
3407;SDS011;1717;50.240;8.406;2024-01-30T03:52:29;6.47;;;5.07;;
3407;SDS011;1717;50.240;8.406;2024-01-30T03:54:56;6.00;;;5.40;;
3407;SDS011;1717;50.240;8.406;2024-01-30T03:57:23;8.57;;;5.20;;
3407;SDS011;1717;50.240;8.406;2024-01-30T03:59:50;6.70;;;5.23;;
3407;SDS011;1717;50.240;8.406;2024-01-30T04:02:17;7.07;;;5.50;;
3407;SDS011;1717;50.240;8.406;2024-01-30T04:04:45;9.60;;;5.70;;
3407;SDS011;1717;50.240;8.406;2024-01-30T04:07:12;6.83;;;5.30;;
3407;SDS011;1717;50.240;8.406;2024-01-30T04:09:38;7.43;;;6.27;;
3407;SDS011;1717;50.240;8.406;2024-01-30T04:12:06;9.73;;;5.97;;
3407;SDS011;1717;50.240;8.406;2024-01-30T04:14:32;8.57;;;6.33;;
3407;SDS011;1717;50.240;8.406;2024-01-30T04:17:00;9.43;;;5.93;;
3407;SDS011;1717;50.240;8.406;2024-01-30T04:19:27;7.80;;;5.93;;
3407;SDS011;1717;50.240;8.406;2024-01-30T04:21:55;9.50;;;5.63;;
3407;SDS011;1717;50.240;8.406;2024-01-30T04:24:22;6.40;;;5.73;;
3407;SDS011;1717;50.240;8.406;2024-01-30T04:26:48;6.43;;;5.60;;
3407;SDS011;1717;50.240;8.406;2024-01-30T04:29:15;5.83;;;4.97;;
3407;SDS011;1717;50.240;8.406;2024-01-30T04:31:42;7.93;;;5.93;;
3407;SDS011;1717;50.240;8.406;2024-01-30T04:34:09;8.00;;;6.10;;
3407;SDS011;1717;50.240;8.406;2024-01-30T04:36:36;15.13;;;6.20;;
3407;SDS011;1717;50.240;8.406;2024-01-30T04:39:04;6.47;;;5.87;;
3407;SDS011;1717;50.240;8.406;2024-01-30T04:41:31;8.57;;;6.07;;
3407;SDS011;1717;50.240;8.406;2024-01-30T04:43:57;10.93;;;7.60;;
3407;SDS011;1717;50.240;8.406;2024-01-30T04:46:24;7.77;;;6.20;;
3407;SDS011;1717;50.240;8.406;2024-01-30T04:48:51;8.33;;;6.10;;
3407;SDS011;1717;50.240;8.406;2024-01-30T04:51:18;8.20;;;6.13;;
3407;SDS011;1717;50.240;8.406;2024-01-30T04:53:45;7.40;;;5.57;;
3407;SDS011;1717;50.240;8.406;2024-01-30T04:56:13;7.80;;;6.03;;
3407;SDS011;1717;50.240;8.406;2024-01-30T04:58:39;11.40;;;6.27;;
3407;SDS011;1717;50.240;8.406;2024-01-30T05:01:06;8.47;;;6.17;;
3407;SDS011;1717;50.240;8.406;2024-01-30T05:03:33;8.90;;;6.80;;
3407;SDS011;1717;50.240;8.406;2024-01-30T05:06:00;7.60;;;6.20;;
3407;SDS011;1717;50.240;8.406;2024-01-30T05:08:27;12.63;;;6.80;;
3407;SDS011;1717;50.240;8.406;2024-01-30T05:10:54;8.17;;;7.00;;
3407;SDS011;1717;50.240;8.406;2024-01-30T05:13:23;7.93;;;6.03;;
3407;SDS011;1717;50.240;8.406;2024-01-30T05:15:49;9.60;;;6.50;;
3407;SDS011;1717;50.240;8.406;2024-01-30T05:18:16;8.70;;;6.80;;
3407;SDS011;1717;50.240;8.406;2024-01-30T05:20:43;10.10;;;7.90;;
3407;SDS011;1717;50.240;8.406;2024-01-30T05:23:10;11.47;;;7.47;;
3407;SDS011;1717;50.240;8.406;2024-01-30T05:25:36;8.60;;;7.60;;
3407;SDS011;1717;50.240;8.406;2024-01-30T05:28:04;10.60;;;8.13;;
3407;SDS011;1717;50.240;8.406;2024-01-30T05:30:32;10.10;;;7.70;;
3407;SDS011;1717;50.240;8.406;2024-01-30T05:32:59;11.63;;;7.97;;
3407;SDS011;1717;50.240;8.406;2024-01-30T05:35:26;12.20;;;7.37;;
3407;SDS011;1717;50.240;8.406;2024-01-30T05:37:53;8.63;;;7.30;;
3407;SDS011;1717;50.240;8.406;2024-01-30T05:40:19;10.27;;;8.17;;
3407;SDS011;1717;50.240;8.406;2024-01-30T05:42:46;10.63;;;7.70;;
3407;SDS011;1717;50.240;8.406;2024-01-30T05:45:13;8.83;;;7.20;;
3407;SDS011;1717;50.240;8.406;2024-01-30T05:47:42;8.33;;;7.53;;
3407;SDS011;1717;50.240;8.406;2024-01-30T05:50:08;9.67;;;7.87;;
3407;SDS011;1717;50.240;8.406;2024-01-30T05:52:35;8.37;;;7.47;;
3407;SDS011;1717;50.240;8.406;2024-01-30T05:55:02;9.90;;;8.50;;
3407;SDS011;1717;50.240;8.406;2024-01-30T05:57:30;10.53;;;8.00;;
3407;SDS011;1717;50.240;8.406;2024-01-30T05:59:57;11.30;;;8.00;;
3407;SDS011;1717;50.240;8.406;2024-01-30T06:02:24;9.50;;;7.60;;
3407;SDS011;1717;50.240;8.406;2024-01-30T06:04:52;9.73;;;7.83;;
3407;SDS011;1717;50.240;8.406;2024-01-30T06:07:19;9.67;;;7.30;;
3407;SDS011;1717;50.240;8.406;2024-01-30T06:09:47;10.20;;;7.27;;
3407;SDS011;1717;50.240;8.406;2024-01-30T06:12:14;8.67;;;7.40;;
3407;SDS011;1717;50.240;8.406;2024-01-30T06:14:41;8.00;;;6.60;;
3407;SDS011;1717;50.240;8.406;2024-01-30T06:17:07;8.57;;;7.47;;
3407;SDS011;1717;50.240;8.406;2024-01-30T06:19:34;11.30;;;7.20;;
3407;SDS011;1717;50.240;8.406;2024-01-30T06:22:04;10.90;;;7.17;;
3407;SDS011;1717;50.240;8.406;2024-01-30T06:24:31;9.50;;;6.87;;
3407;SDS011;1717;50.240;8.406;2024-01-30T06:26:58;10.20;;;7.50;;
3407;SDS011;1717;50.240;8.406;2024-01-30T06:29:25;11.83;;;7.17;;
3407;SDS011;1717;50.240;8.406;2024-01-30T06:31:52;10.97;;;7.60;;
3407;SDS011;1717;50.240;8.406;2024-01-30T06:34:19;13.23;;;7.80;;
3407;SDS011;1717;50.240;8.406;2024-01-30T06:36:46;10.37;;;6.50;;
3407;SDS011;1717;50.240;8.406;2024-01-30T06:39:14;10.70;;;6.63;;
3407;SDS011;1717;50.240;8.406;2024-01-30T06:41:41;9.10;;;7.50;;
3407;SDS011;1717;50.240;8.406;2024-01-30T06:44:07;6.73;;;5.97;;
3407;SDS011;1717;50.240;8.406;2024-01-30T06:46:34;9.07;;;7.10;;
3407;SDS011;1717;50.240;8.406;2024-01-30T06:49:02;10.57;;;7.37;;
3407;SDS011;1717;50.240;8.406;2024-01-30T06:51:29;8.73;;;6.30;;
3407;SDS011;1717;50.240;8.406;2024-01-30T06:53:55;8.60;;;5.90;;
3407;SDS011;1717;50.240;8.406;2024-01-30T06:56:24;8.67;;;6.43;;
3407;SDS011;1717;50.240;8.406;2024-01-30T06:58:50;6.67;;;5.90;;
3407;SDS011;1717;50.240;8.406;2024-01-30T07:01:17;9.70;;;7.10;;
3407;SDS011;1717;50.240;8.406;2024-01-30T07:03:44;14.57;;;6.87;;
3407;SDS011;1717;50.240;8.406;2024-01-30T07:06:11;8.47;;;7.20;;
3407;SDS011;1717;50.240;8.406;2024-01-30T07:08:38;8.70;;;6.10;;
3407;SDS011;1717;50.240;8.406;2024-01-30T07:11:05;9.13;;;6.47;;
3407;SDS011;1717;50.240;8.406;2024-01-30T07:13:33;8.07;;;5.80;;
3407;SDS011;1717;50.240;8.406;2024-01-30T07:16:00;10.27;;;7.53;;
3407;SDS011;1717;50.240;8.406;2024-01-30T07:18:27;8.60;;;6.50;;
3407;SDS011;1717;50.240;8.406;2024-01-30T07:20:54;7.37;;;6.37;;
3407;SDS011;1717;50.240;8.406;2024-01-30T07:23:20;8.50;;;6.30;;
3407;SDS011;1717;50.240;8.406;2024-01-30T07:25:47;7.60;;;6.10;;
3407;SDS011;1717;50.240;8.406;2024-01-30T07:28:15;7.20;;;6.43;;
3407;SDS011;1717;50.240;8.406;2024-01-30T07:30:44;8.47;;;6.50;;
3407;SDS011;1717;50.240;8.406;2024-01-30T07:33:11;8.80;;;7.07;;
3407;SDS011;1717;50.240;8.406;2024-01-30T07:35:38;7.77;;;6.97;;
3407;SDS011;1717;50.240;8.406;2024-01-30T07:38:05;9.13;;;7.23;;
3407;SDS011;1717;50.240;8.406;2024-01-30T07:40:32;8.50;;;7.07;;
3407;SDS011;1717;50.240;8.406;2024-01-30T07:42:59;8.80;;;7.57;;
3407;SDS011;1717;50.240;8.406;2024-01-30T07:45:26;9.07;;;7.63;;
3407;SDS011;1717;50.240;8.406;2024-01-30T07:47:58;10.20;;;7.10;;
3407;SDS011;1717;50.240;8.406;2024-01-30T07:50:26;10.70;;;8.30;;
3407;SDS011;1717;50.240;8.406;2024-01-30T07:52:53;11.83;;;8.20;;
3407;SDS011;1717;50.240;8.406;2024-01-30T07:55:20;12.50;;;7.70;;
3407;SDS011;1717;50.240;8.406;2024-01-30T07:57:49;9.70;;;7.37;;
3407;SDS011;1717;50.240;8.406;2024-01-30T08:00:16;14.90;;;7.30;;
3407;SDS011;1717;50.240;8.406;2024-01-30T08:02:44;9.60;;;7.40;;
3407;SDS011;1717;50.240;8.406;2024-01-30T08:05:12;10.70;;;7.77;;
3407;SDS011;1717;50.240;8.406;2024-01-30T08:07:40;8.57;;;7.40;;
3407;SDS011;1717;50.240;8.406;2024-01-30T08:10:07;9.60;;;7.37;;
3407;SDS011;1717;50.240;8.406;2024-01-30T08:12:34;9.40;;;7.37;;
3407;SDS011;1717;50.240;8.406;2024-01-30T08:15:01;11.60;;;8.40;;
3407;SDS011;1717;50.240;8.406;2024-01-30T08:17:28;8.30;;;6.50;;
3407;SDS011;1717;50.240;8.406;2024-01-30T08:19:55;14.40;;;8.00;;
3407;SDS011;1717;50.240;8.406;2024-01-30T08:22:23;9.40;;;7.30;;
3407;SDS011;1717;50.240;8.406;2024-01-30T08:24:50;8.57;;;6.90;;
3407;SDS011;1717;50.240;8.406;2024-01-30T08:27:17;8.83;;;7.10;;
3407;SDS011;1717;50.240;8.406;2024-01-30T08:29:43;11.37;;;6.90;;
3407;SDS011;1717;50.240;8.406;2024-01-30T08:32:11;8.43;;;7.17;;
3407;SDS011;1717;50.240;8.406;2024-01-30T08:34:38;13.10;;;8.80;;
3407;SDS011;1717;50.240;8.406;2024-01-30T08:37:05;8.23;;;7.13;;
3407;SDS011;1717;50.240;8.406;2024-01-30T08:39:33;9.47;;;7.57;;
3407;SDS011;1717;50.240;8.406;2024-01-30T08:42:00;9.67;;;7.87;;
3407;SDS011;1717;50.240;8.406;2024-01-30T08:44:27;8.67;;;7.63;;
3407;SDS011;1717;50.240;8.406;2024-01-30T08:46:53;7.77;;;6.97;;
3407;SDS011;1717;50.240;8.406;2024-01-30T08:49:20;12.87;;;7.93;;
3407;SDS011;1717;50.240;8.406;2024-01-30T08:51:47;9.20;;;7.17;;
3407;SDS011;1717;50.240;8.406;2024-01-30T08:54:15;11.40;;;7.23;;
3407;SDS011;1717;50.240;8.406;2024-01-30T08:56:44;7.70;;;6.90;;
3407;SDS011;1717;50.240;8.406;2024-01-30T08:59:10;8.20;;;6.50;;
3407;SDS011;1717;50.240;8.406;2024-01-30T09:01:37;9.00;;;6.70;;
3407;SDS011;1717;50.240;8.406;2024-01-30T09:04:04;10.80;;;7.47;;
3407;SDS011;1717;50.240;8.406;2024-01-30T09:06:31;10.40;;;6.80;;
3407;SDS011;1717;50.240;8.406;2024-01-30T09:08:58;7.73;;;7.00;;
3407;SDS011;1717;50.240;8.406;2024-01-30T09:11:24;9.33;;;6.50;;
3407;SDS011;1717;50.240;8.406;2024-01-30T09:13:53;8.93;;;7.60;;
3407;SDS011;1717;50.240;8.406;2024-01-30T09:16:19;8.17;;;6.23;;
3407;SDS011;1717;50.240;8.406;2024-01-30T09:18:46;8.00;;;7.20;;
3407;SDS011;1717;50.240;8.406;2024-01-30T09:21:13;10.90;;;6.67;;
3407;SDS011;1717;50.240;8.406;2024-01-30T09:23:40;8.13;;;6.93;;
3407;SDS011;1717;50.240;8.406;2024-01-30T09:26:07;8.97;;;7.53;;
3407;SDS011;1717;50.240;8.406;2024-01-30T09:28:34;10.97;;;7.53;;
3407;SDS011;1717;50.240;8.406;2024-01-30T09:31:02;8.37;;;6.80;;
3407;SDS011;1717;50.240;8.406;2024-01-30T09:33:29;10.50;;;8.23;;
3407;SDS011;1717;50.240;8.406;2024-01-30T09:35:56;7.10;;;6.27;;
3407;SDS011;1717;50.240;8.406;2024-01-30T09:38:23;9.20;;;7.00;;
3407;SDS011;1717;50.240;8.406;2024-01-30T09:40:54;8.97;;;7.00;;
3407;SDS011;1717;50.240;8.406;2024-01-30T09:43:22;9.90;;;7.43;;
3407;SDS011;1717;50.240;8.406;2024-01-30T09:45:50;8.07;;;6.80;;
3407;SDS011;1717;50.240;8.406;2024-01-30T09:48:19;7.73;;;6.50;;
3407;SDS011;1717;50.240;8.406;2024-01-30T09:50:46;8.20;;;6.53;;
3407;SDS011;1717;50.240;8.406;2024-01-30T09:53:13;7.30;;;6.60;;
3407;SDS011;1717;50.240;8.406;2024-01-30T09:55:40;8.60;;;7.50;;
3407;SDS011;1717;50.240;8.406;2024-01-30T09:58:09;10.13;;;6.70;;
3407;SDS011;1717;50.240;8.406;2024-01-30T10:00:37;8.23;;;6.87;;
3407;SDS011;1717;50.240;8.406;2024-01-30T10:03:04;6.90;;;6.20;;
3407;SDS011;1717;50.240;8.406;2024-01-30T10:05:32;10.57;;;6.90;;
3407;SDS011;1717;50.240;8.406;2024-01-30T10:08:05;10.20;;;6.90;;
3407;SDS011;1717;50.240;8.406;2024-01-30T10:10:33;7.33;;;6.50;;
3407;SDS011;1717;50.240;8.406;2024-01-30T10:13:00;11.73;;;7.23;;
3407;SDS011;1717;50.240;8.406;2024-01-30T10:15:27;9.60;;;6.30;;
3407;SDS011;1717;50.240;8.406;2024-01-30T10:17:54;11.27;;;6.13;;
3407;SDS011;1717;50.240;8.406;2024-01-30T10:20:21;10.20;;;8.50;;
3407;SDS011;1717;50.240;8.406;2024-01-30T10:22:52;7.10;;;5.73;;
3407;SDS011;1717;50.240;8.406;2024-01-30T10:25:18;7.50;;;6.37;;
3407;SDS011;1717;50.240;8.406;2024-01-30T10:27:52;8.93;;;6.40;;
3407;SDS011;1717;50.240;8.406;2024-01-30T10:30:19;8.80;;;6.90;;
3407;SDS011;1717;50.240;8.406;2024-01-30T10:32:46;8.10;;;6.70;;
3407;SDS011;1717;50.240;8.406;2024-01-30T10:35:13;7.43;;;6.50;;
3407;SDS011;1717;50.240;8.406;2024-01-30T10:37:41;8.13;;;5.63;;
3407;SDS011;1717;50.240;8.406;2024-01-30T10:40:12;8.67;;;7.10;;
3407;SDS011;1717;50.240;8.406;2024-01-30T10:42:42;8.80;;;7.57;;
3407;SDS011;1717;50.240;8.406;2024-01-30T10:45:10;10.27;;;6.90;;
3407;SDS011;1717;50.240;8.406;2024-01-30T10:47:39;9.50;;;7.10;;
3407;SDS011;1717;50.240;8.406;2024-01-30T10:50:07;7.50;;;6.80;;
3407;SDS011;1717;50.240;8.406;2024-01-30T10:52:35;9.67;;;7.10;;
3407;SDS011;1717;50.240;8.406;2024-01-30T10:55:03;8.30;;;6.87;;
3407;SDS011;1717;50.240;8.406;2024-01-30T10:57:33;13.97;;;8.97;;
3407;SDS011;1717;50.240;8.406;2024-01-30T11:00:02;16.17;;;12.10;;
3407;SDS011;1717;50.240;8.406;2024-01-30T11:02:35;11.93;;;8.83;;
3407;SDS011;1717;50.240;8.406;2024-01-30T11:05:04;12.57;;;9.00;;
3407;SDS011;1717;50.240;8.406;2024-01-30T11:07:31;11.90;;;9.37;;
3407;SDS011;1717;50.240;8.406;2024-01-30T11:10:01;11.83;;;9.00;;
3407;SDS011;1717;50.240;8.406;2024-01-30T11:12:30;10.63;;;8.23;;
3407;SDS011;1717;50.240;8.406;2024-01-30T11:15:07;13.90;;;8.63;;
3407;SDS011;1717;50.240;8.406;2024-01-30T11:17:44;12.60;;;8.30;;
3407;SDS011;1717;50.240;8.406;2024-01-30T11:20:16;10.87;;;8.10;;
3407;SDS011;1717;50.240;8.406;2024-01-30T11:22:46;13.43;;;8.57;;
3407;SDS011;1717;50.240;8.406;2024-01-30T11:25:14;11.40;;;9.47;;
3407;SDS011;1717;50.240;8.406;2024-01-30T11:27:42;10.50;;;7.47;;
3407;SDS011;1717;50.240;8.406;2024-01-30T11:30:11;10.23;;;9.03;;
3407;SDS011;1717;50.240;8.406;2024-01-30T11:32:57;8.23;;;7.40;;
3407;SDS011;1717;50.240;8.406;2024-01-30T11:35:24;12.50;;;8.17;;
3407;SDS011;1717;50.240;8.406;2024-01-30T11:37:52;10.23;;;7.70;;
3407;SDS011;1717;50.240;8.406;2024-01-30T11:40:20;8.00;;;7.27;;
3407;SDS011;1717;50.240;8.406;2024-01-30T11:42:47;10.70;;;8.17;;
3407;SDS011;1717;50.240;8.406;2024-01-30T11:45:16;8.30;;;7.20;;
3407;SDS011;1717;50.240;8.406;2024-01-30T11:47:43;10.67;;;7.60;;
3407;SDS011;1717;50.240;8.406;2024-01-30T11:50:10;9.07;;;7.70;;
3407;SDS011;1717;50.240;8.406;2024-01-30T11:52:37;10.17;;;7.57;;
3407;SDS011;1717;50.240;8.406;2024-01-30T11:55:04;8.03;;;7.13;;
3407;SDS011;1717;50.240;8.406;2024-01-30T11:57:33;10.70;;;7.90;;
3407;SDS011;1717;50.240;8.406;2024-01-30T12:00:00;9.13;;;7.53;;
3407;SDS011;1717;50.240;8.406;2024-01-30T12:02:28;10.03;;;7.97;;
3407;SDS011;1717;50.240;8.406;2024-01-30T12:04:55;9.77;;;8.20;;
3407;SDS011;1717;50.240;8.406;2024-01-30T12:07:22;10.70;;;7.10;;
3407;SDS011;1717;50.240;8.406;2024-01-30T12:09:52;8.73;;;7.50;;
3407;SDS011;1717;50.240;8.406;2024-01-30T12:12:19;10.87;;;7.77;;
3407;SDS011;1717;50.240;8.406;2024-01-30T12:14:48;7.70;;;6.57;;
3407;SDS011;1717;50.240;8.406;2024-01-30T12:17:22;9.67;;;7.10;;
3407;SDS011;1717;50.240;8.406;2024-01-30T12:19:51;10.50;;;7.67;;
3407;SDS011;1717;50.240;8.406;2024-01-30T12:22:29;12.00;;;8.10;;
3407;SDS011;1717;50.240;8.406;2024-01-30T12:24:56;10.27;;;8.17;;
3407;SDS011;1717;50.240;8.406;2024-01-30T12:27:23;11.03;;;8.13;;
3407;SDS011;1717;50.240;8.406;2024-01-30T12:29:55;9.87;;;7.83;;
3407;SDS011;1717;50.240;8.406;2024-01-30T12:32:22;10.57;;;7.90;;
3407;SDS011;1717;50.240;8.406;2024-01-30T12:34:49;9.37;;;7.70;;
3407;SDS011;1717;50.240;8.406;2024-01-30T12:37:17;9.93;;;8.60;;
3407;SDS011;1717;50.240;8.406;2024-01-30T12:39:47;11.00;;;7.90;;
3407;SDS011;1717;50.240;8.406;2024-01-30T12:42:14;7.70;;;7.00;;
3407;SDS011;1717;50.240;8.406;2024-01-30T12:44:41;9.37;;;7.30;;
3407;SDS011;1717;50.240;8.406;2024-01-30T12:47:08;12.73;;;7.27;;
3407;SDS011;1717;50.240;8.406;2024-01-30T12:49:35;8.57;;;6.80;;
3407;SDS011;1717;50.240;8.406;2024-01-30T12:52:02;8.87;;;7.20;;
3407;SDS011;1717;50.240;8.406;2024-01-30T12:54:31;8.50;;;7.20;;
3407;SDS011;1717;50.240;8.406;2024-01-30T12:56:58;9.80;;;7.73;;
3407;SDS011;1717;50.240;8.406;2024-01-30T12:59:25;9.40;;;6.63;;
3407;SDS011;1717;50.240;8.406;2024-01-30T13:01:52;10.20;;;8.30;;
3407;SDS011;1717;50.240;8.406;2024-01-30T13:04:18;10.57;;;8.20;;
3407;SDS011;1717;50.240;8.406;2024-01-30T13:06:45;7.57;;;6.77;;
3407;SDS011;1717;50.240;8.406;2024-01-30T13:09:12;10.20;;;6.73;;
3407;SDS011;1717;50.240;8.406;2024-01-30T13:11:40;7.87;;;6.03;;
3407;SDS011;1717;50.240;8.406;2024-01-30T13:14:07;7.83;;;6.30;;
3407;SDS011;1717;50.240;8.406;2024-01-30T13:16:34;7.33;;;6.53;;
3407;SDS011;1717;50.240;8.406;2024-01-30T13:19:01;11.77;;;7.53;;
3407;SDS011;1717;50.240;8.406;2024-01-30T13:21:28;8.60;;;7.70;;
3407;SDS011;1717;50.240;8.406;2024-01-30T13:23:55;7.73;;;6.93;;
3407;SDS011;1717;50.240;8.406;2024-01-30T13:26:22;7.83;;;7.03;;
3407;SDS011;1717;50.240;8.406;2024-01-30T13:28:50;14.43;;;7.70;;
3407;SDS011;1717;50.240;8.406;2024-01-30T13:31:17;9.50;;;7.20;;
3407;SDS011;1717;50.240;8.406;2024-01-30T13:33:44;8.53;;;7.50;;
3407;SDS011;1717;50.240;8.406;2024-01-30T13:36:11;10.00;;;7.80;;
3407;SDS011;1717;50.240;8.406;2024-01-30T13:38:39;8.47;;;7.43;;
3407;SDS011;1717;50.240;8.406;2024-01-30T13:41:06;9.87;;;7.30;;
3407;SDS011;1717;50.240;8.406;2024-01-30T13:43:33;13.73;;;7.43;;
3407;SDS011;1717;50.240;8.406;2024-01-30T13:46:02;10.33;;;7.27;;
3407;SDS011;1717;50.240;8.406;2024-01-30T13:48:29;9.13;;;8.20;;
3407;SDS011;1717;50.240;8.406;2024-01-30T13:50:57;11.90;;;7.13;;
3407;SDS011;1717;50.240;8.406;2024-01-30T13:53:24;12.13;;;8.60;;
3407;SDS011;1717;50.240;8.406;2024-01-30T13:55:51;11.13;;;8.67;;
3407;SDS011;1717;50.240;8.406;2024-01-30T13:58:18;8.30;;;7.33;;
3407;SDS011;1717;50.240;8.406;2024-01-30T14:00:45;10.00;;;7.80;;
3407;SDS011;1717;50.240;8.406;2024-01-30T14:03:13;9.20;;;7.37;;
3407;SDS011;1717;50.240;8.406;2024-01-30T14:05:40;13.10;;;8.10;;
3407;SDS011;1717;50.240;8.406;2024-01-30T14:08:07;10.50;;;7.50;;
3407;SDS011;1717;50.240;8.406;2024-01-30T14:10:34;9.43;;;7.50;;
3407;SDS011;1717;50.240;8.406;2024-01-30T14:13:01;12.03;;;8.07;;
3407;SDS011;1717;50.240;8.406;2024-01-30T14:15:28;11.53;;;8.47;;
3407;SDS011;1717;50.240;8.406;2024-01-30T14:17:54;8.57;;;7.67;;
3407;SDS011;1717;50.240;8.406;2024-01-30T14:20:23;11.70;;;8.63;;
3407;SDS011;1717;50.240;8.406;2024-01-30T14:22:49;8.87;;;7.23;;
3407;SDS011;1717;50.240;8.406;2024-01-30T14:25:18;8.83;;;7.90;;
3407;SDS011;1717;50.240;8.406;2024-01-30T14:27:45;8.53;;;7.63;;
3407;SDS011;1717;50.240;8.406;2024-01-30T14:30:12;11.30;;;8.60;;
3407;SDS011;1717;50.240;8.406;2024-01-30T14:32:38;9.17;;;7.50;;
3407;SDS011;1717;50.240;8.406;2024-01-30T14:35:07;11.83;;;7.90;;
3407;SDS011;1717;50.240;8.406;2024-01-30T14:37:36;9.77;;;7.63;;
3407;SDS011;1717;50.240;8.406;2024-01-30T14:40:04;8.13;;;7.37;;
3407;SDS011;1717;50.240;8.406;2024-01-30T14:42:32;8.80;;;7.90;;
3407;SDS011;1717;50.240;8.406;2024-01-30T14:45:00;11.20;;;7.70;;
3407;SDS011;1717;50.240;8.406;2024-01-30T14:47:28;9.10;;;8.13;;
3407;SDS011;1717;50.240;8.406;2024-01-30T14:49:55;8.33;;;7.30;;
3407;SDS011;1717;50.240;8.406;2024-01-30T14:52:22;9.93;;;8.00;;
3407;SDS011;1717;50.240;8.406;2024-01-30T14:54:50;10.30;;;7.77;;
3407;SDS011;1717;50.240;8.406;2024-01-30T14:57:17;12.77;;;10.43;;
3407;SDS011;1717;50.240;8.406;2024-01-30T14:59:45;14.63;;;10.67;;
3407;SDS011;1717;50.240;8.406;2024-01-30T15:02:13;12.30;;;9.90;;
3407;SDS011;1717;50.240;8.406;2024-01-30T15:04:40;14.10;;;9.70;;
3407;SDS011;1717;50.240;8.406;2024-01-30T15:07:07;10.43;;;8.53;;
3407;SDS011;1717;50.240;8.406;2024-01-30T15:09:35;10.90;;;7.90;;
3407;SDS011;1717;50.240;8.406;2024-01-30T15:12:03;10.87;;;9.13;;